Time;durP1;ratioP1;P1;durP2;ratioP2;P2;SDS_P1;SDS_P2;PMS_P1;PMS_P2;Temp;Humidity;BMP_temperature;BMP_pressure;BME280_temperature;BME280_humidity;BME280_pressure;Samples;Min_cycle;Max_cycle;Signal;HPM_P1;HPM_P2
2021/03/25 00:02:26;;;;;;;41.10;23.42;;;128.40;1792.00;;;;;;5074116;28;20021;-61
2021/03/25 00:04:51;;;;;;;38.17;21.45;;;128.30;1792.00;;;;;;5073859;28;20036;-72
2021/03/25 00:07:17;;;;;;;35.30;21.30;;;128.30;1792.00;;;;;;5074155;28;20074;-73
2021/03/25 00:09:43;;;;;;;38.40;21.83;;;128.30;1792.00;;;;;;5073847;28;20470;-64
2021/03/25 00:12:09;;;;;;;39.97;20.85;;;128.30;1792.00;;;;;;5074062;28;20024;-61
2021/03/25 00:14:35;;;;;;;39.72;20.80;;;128.30;1792.00;;;;;;5073962;28;20036;-64
2021/03/25 00:17:01;;;;;;;42.70;21.48;;;128.30;1792.00;;;;;;5073845;28;20031;-61
2021/03/25 00:19:27;;;;;;;38.38;21.95;;;128.30;1792.00;;;;;;5073964;28;20051;-69
2021/03/25 00:21:52;;;;;;;38.85;22.08;;;128.20;1792.00;;;;;;5073867;28;20489;-61
2021/03/25 00:24:19;;;;;;;36.45;21.63;;;128.20;1792.00;;;;;;5073628;28;20020;-61
2021/03/25 00:26:45;;;;;;;36.35;22.42;;;128.20;1792.00;;;;;;5073283;28;20093;-61
2021/03/25 00:29:13;;;;;;;39.60;23.13;;;128.20;1792.00;;;;;;5073934;28;20052;-61
2021/03/25 00:31:41;;;;;;;37.78;23.20;;;128.20;1792.00;;;;;;5074099;28;20413;-62
2021/03/25 00:34:07;;;;;;;44.38;25.08;;;128.10;1792.00;;;;;;5073916;28;20086;-70
2021/03/25 00:36:33;;;;;;;43.80;25.05;;;128.10;1792.00;;;;;;5073561;28;20444;-69
2021/03/25 00:38:59;;;;;;;49.55;25.88;;;128.10;1792.00;;;;;;5073403;28;20040;-61
2021/03/25 00:41:27;;;;;;;41.95;24.55;;;128.00;1792.00;;;;;;5073399;28;20575;-62
2021/03/25 00:43:53;;;;;;;43.22;24.92;;;128.00;1792.00;;;;;;5073765;28;20043;-65
2021/03/25 00:46:20;;;;;;;45.08;25.00;;;128.00;1792.00;;;;;;5073557;28;20028;-68
2021/03/25 00:48:45;;;;;;;56.15;29.33;;;128.00;1792.00;;;;;;5073987;28;20052;-62
2021/03/25 00:51:11;;;;;;;61.83;31.92;;;128.00;1766.40;;;;;;5073749;28;20378;-61
2021/03/25 00:53:37;;;;;;;79.00;37.97;;;128.00;1766.40;;;;;;5073572;28;20044;-62
2021/03/25 00:56:05;;;;;;;87.65;43.00;;;103.30;1740.80;;;;;;5073650;28;20047;-62
2021/03/25 00:58:31;;;;;;;91.82;44.38;;;103.30;1740.80;;;;;;5073342;28;20028;-73
2021/03/25 01:00:57;;;;;;;113.50;50.78;;;103.30;1740.80;;;;;;5073420;28;20028;-73
2021/03/25 01:03:25;;;;;;;123.55;54.67;;;103.30;1740.80;;;;;;5073097;28;20474;-62
2021/03/25 01:05:52;;;;;;;127.00;53.83;;;103.20;1740.80;;;;;;5073506;28;20488;-73
2021/03/25 01:08:29;;;;;;;122.45;51.65;;;103.20;1740.80;;;;;;5073453;28;20467;-64
2021/03/25 01:11:00;;;;;;;118.03;53.83;;;103.10;1740.80;;;;;;5073158;28;20106;-61
2021/03/25 01:13:30;;;;;;;131.57;55.83;;;103.10;1740.80;;;;;;5073135;28;20028;-72
2021/03/25 01:15:57;;;;;;;133.32;56.15;;;103.10;1715.20;;;;;;5074259;28;20130;-61
2021/03/25 01:18:24;;;;;;;120.25;52.00;;;103.00;1740.80;;;;;;5077498;28;20378;-61
2021/03/25 01:20:50;;;;;;;98.53;45.75;;;103.00;1740.80;;;;;;5077186;28;20027;-71
2021/03/25 01:23:16;;;;;;;113.32;49.03;;;103.00;1740.80;;;;;;5077226;28;20024;-62
2021/03/25 01:25:42;;;;;;;120.80;49.72;;;103.00;1740.80;;;;;;5059138;28;20055;-61
2021/03/25 01:28:11;;;;;;;119.80;50.95;;;103.00;1740.80;;;;;;5076845;28;20020;-61
2021/03/25 01:30:38;;;;;;;112.32;50.08;;;102.90;1740.80;;;;;;5076858;28;20021;-62
2021/03/25 01:33:06;;;;;;;107.35;50.13;;;102.90;1740.80;;;;;;5076986;28;20025;-61
2021/03/25 01:35:34;;;;;;;94.38;44.47;;;102.90;1740.80;;;;;;5077051;28;20032;-71
2021/03/25 01:37:59;;;;;;;80.25;40.45;;;102.90;1740.80;;;;;;5076513;28;20044;-63
2021/03/25 01:40:35;;;;;;;73.97;37.35;;;102.80;1766.40;;;;;;5077043;28;20031;-72
2021/03/25 01:43:15;;;;;;;69.60;35.42;;;102.80;1766.40;;;;;;5076799;28;20025;-67
2021/03/25 01:45:49;;;;;;;64.85;34.42;;;102.80;1766.40;;;;;;5076662;28;20036;-71
2021/03/25 01:48:18;;;;;;;59.72;32.25;;;102.80;1766.40;;;;;;5076587;28;20470;-72
2021/03/25 01:50:44;;;;;;;58.63;31.23;;;102.70;1766.40;;;;;;5076567;28;20034;-72
2021/03/25 01:53:41;;;;;;;51.95;29.05;;;102.70;1792.00;;;;;;5076693;28;20048;-73
2021/03/25 01:56:28;;;;;;;56.22;30.55;;;102.70;1766.40;;;;;;5076589;28;20470;-61
2021/03/25 01:59:09;;;;;;;54.80;29.35;;;102.60;1792.00;;;;;;5076375;28;20024;-61
2021/03/25 02:01:49;;;;;;;59.85;31.77;;;102.60;1792.00;;;;;;5076497;28;20070;-62
2021/03/25 02:04:37;;;;;;;57.90;30.70;;;102.60;1766.40;;;;;;5076402;28;20048;-61
2021/03/25 02:07:09;;;;;;;57.58;28.83;;;102.60;1766.40;;;;;;5076629;28;20411;-73
2021/03/25 02:09:54;;;;;;;58.80;29.90;;;102.60;1766.40;;;;;;5076065;28;20462;-73
2021/03/25 02:12:30;;;;;;;;;;;102.60;1766.40;;;;;;5076857;28;20028;-61
2021/03/25 02:15:06;;;;;;;52.75;26.58;;;102.50;1740.80;;;;;;5076244;28;20009;-62
2021/03/25 02:17:34;;;;;;;52.10;29.13;;;102.50;1740.80;;;;;;5076157;28;20028;-72
2021/03/25 02:20:09;;;;;;;51.45;28.40;;;102.50;1740.80;;;;;;5076288;28;20024;-62
2021/03/25 02:22:41;;;;;;;66.78;34.08;;;102.40;1740.80;;;;;;5076073;28;20033;-73
2021/03/25 02:25:11;;;;;;;84.80;40.35;;;102.40;1740.80;;;;;;5075988;28;20028;-73
2021/03/25 02:27:43;;;;;;;97.75;47.30;;;102.40;1740.80;;;;;;5075757;28;20031;-66
2021/03/25 02:30:12;;;;;;;100.07;49.05;;;102.40;1740.80;;;;;;5076369;28;20340;-62
2021/03/25 02:32:49;;;;;;;93.78;45.72;;;102.40;1740.80;;;;;;5076115;28;20020;-62
2021/03/25 02:35:20;;;;;;;90.97;46.40;;;102.40;1740.80;;;;;;5075669;28;20120;-62
2021/03/25 02:37:51;;;;;;;93.38;46.90;;;102.40;1740.80;;;;;;5075670;28;20076;-61
2021/03/25 02:40:27;;;;;;;91.35;46.70;;;102.40;1740.80;;;;;;5075673;28;20046;-73
2021/03/25 02:43:07;;;;;;;91.20;46.85;;;77.70;1740.80;;;;;;5075585;28;20078;-72
2021/03/25 02:45:38;;;;;;;98.45;46.42;;;77.70;1766.40;;;;;;5075835;28;20039;-61
2021/03/25 02:48:18;;;;;;;89.78;44.97;;;77.70;1740.80;;;;;;5075776;28;20070;-62
2021/03/25 02:50:51;;;;;;;81.93;43.33;;;77.70;1740.80;;;;;;5075782;28;20028;-62
2021/03/25 02:53:32;;;;;;;90.43;43.33;;;77.70;1740.80;;;;;;5075839;28;20033;-71
2021/03/25 02:56:14;;;;;;;120.70;51.78;;;77.70;1740.80;;;;;;5075660;28;20021;-62
2021/03/25 02:58:43;;;;;;;105.22;47.63;;;77.60;1740.80;;;;;;5075381;28;20020;-62
2021/03/25 03:01:13;;;;;;;92.40;44.65;;;77.60;1766.40;;;;;;5075377;28;20433;-61
2021/03/25 03:03:55;;;;;;;103.22;48.33;;;77.60;1766.40;;;;;;5075378;28;20028;-69
2021/03/25 03:06:30;;;;;;;131.98;56.63;;;77.60;1766.40;;;;;;5075112;28;20032;-73
2021/03/25 03:08:57;;;;;;;119.28;50.60;;;77.50;1766.40;;;;;;5075167;28;20044;-61
2021/03/25 03:11:28;;;;;;;91.35;39.53;;;77.60;1766.40;;;;;;5075295;28;20033;-63
2021/03/25 03:14:04;;;;;;;69.03;32.05;;;77.50;1766.40;;;;;;5075050;28;20044;-61
2021/03/25 03:16:39;;;;;;;57.28;28.85;;;77.50;1766.40;;;;;;5075005;28;20526;-61
2021/03/25 03:19:10;;;;;;;59.88;27.23;;;77.50;1792.00;;;;;;5075487;28;20017;-60
2021/03/25 03:21:41;;;;;;;50.15;24.50;;;77.50;1792.00;;;;;;5074863;28;20086;-72
2021/03/25 03:24:08;;;;;;;42.67;22.50;;;77.50;1792.00;;;;;;5074996;28;20016;-71
2021/03/25 03:26:40;;;;;;;41.30;21.30;;;77.40;1766.40;;;;;;5074750;28;20542;-64
2021/03/25 03:29:08;;;;;;;37.75;20.65;;;77.40;1766.40;;;;;;5074514;28;20078;-61
2021/03/25 03:31:48;;;;;;;37.78;20.92;;;77.40;1792.00;;;;;;5074610;28;20104;-61
2021/03/25 03:34:46;;;;;;;35.70;20.05;;;77.40;1792.00;;;;;;5074538;28;20036;-62
2021/03/25 03:37:21;;;;;;;39.15;20.75;;;77.30;1792.00;;;;;;4973717;28;20051;-61
2021/03/25 03:39:51;;;;;;;35.47;21.90;;;77.30;1792.00;;;;;;4973197;28;20031;-72
2021/03/25 03:42:19;;;;;;;45.90;23.10;;;77.20;1792.00;;;;;;4973811;28;20034;-61
2021/03/25 03:44:49;;;;;;;37.97;21.75;;;77.20;1792.00;;;;;;4973790;28;20034;-71
2021/03/25 03:47:18;;;;;;;36.75;21.55;;;77.20;1792.00;;;;;;4973593;28;20038;-73
2021/03/25 03:50:07;;;;;;;40.05;22.35;;;77.20;1817.60;;;;;;4973817;28;20035;-73
2021/03/25 03:52:37;;;;;;;33.97;20.08;;;77.20;1792.00;;;;;;4973531;28;20078;-61
2021/03/25 03:55:09;;;;;;;35.60;21.83;;;77.20;1792.00;;;;;;4973447;28;20039;-70
2021/03/25 03:57:53;;;;;;;35.22;20.67;;;77.10;1792.00;;;;;;4973415;28;20072;-70
2021/03/25 04:00:37;;;;;;;33.45;20.77;;;77.10;1792.00;;;;;;4973426;28;20043;-61
2021/03/25 04:03:12;;;;;;;33.15;20.48;;;77.10;1792.00;;;;;;4973373;28;20062;-61
2021/03/25 04:05:42;;;;;;;39.40;22.27;;;77.10;1792.00;;;;;;4973408;28;20027;-61
2021/03/25 04:08:17;;;;;;;36.15;22.65;;;77.10;1792.00;;;;;;4973192;28;20101;-61
2021/03/25 04:10:45;;;;;;;;;;;77.10;1817.60;;;;;;4973715;28;20030;-60
2021/03/25 04:13:16;;;;;;;46.70;25.00;;;77.10;1817.60;;;;;;5008776;28;19942;-66
2021/03/25 04:15:47;;;;;;;47.10;27.17;;;77.00;1817.60;;;;;;5074076;28;20104;-61
2021/03/25 04:18:17;;;;;;;48.45;26.65;;;77.00;1817.60;;;;;;5073935;28;20052;-71
2021/03/25 04:20:52;;;;;;;44.33;26.63;;;77.00;1843.20;;;;;;5073988;28;20370;-70
2021/03/25 04:23:22;;;;;;;41.10;25.58;;;77.00;1843.20;;;;;;5074039;28;20471;-61
2021/03/25 04:26:11;;;;;;;40.65;25.63;;;77.00;1843.20;;;;;;5074110;28;20020;-60
2021/03/25 04:28:42;;;;;;;40.90;25.23;;;77.00;1817.60;;;;;;5073888;28;20017;-61
2021/03/25 04:31:08;;;;;;;44.17;25.35;;;77.00;1817.60;;;;;;5073811;28;20043;-62
2021/03/25 04:33:39;;;;;;;42.45;26.45;;;77.00;1817.60;;;;;;5073827;28;20028;-60
2021/03/25 04:36:12;;;;;;;44.90;27.35;;;77.00;1817.60;;;;;;5073658;28;20042;-60
2021/03/25 04:38:40;;;;;;;51.88;30.95;;;77.00;1817.60;;;;;;5073602;28;20040;-69
2021/03/25 04:41:08;;;;;;;65.18;37.85;;;77.00;1817.60;;;;;;5073551;28;20024;-70
2021/03/25 04:43:34;;;;;;;77.00;41.72;;;77.00;1817.60;;;;;;5073546;28;20035;-60
2021/03/25 04:46:18;;;;;;;73.53;40.55;;;77.00;1817.60;;;;;;5073535;28;20016;-61
2021/03/25 04:48:45;;;;;;;72.10;41.00;;;77.00;1817.60;;;;;;5073482;28;20082;-61
2021/03/25 04:51:17;;;;;;;72.32;40.70;;;77.00;1817.60;;;;;;5072643;28;20385;-69
2021/03/25 04:53:44;;;;;;;74.93;41.75;;;77.00;1817.60;;;;;;5073600;28;20032;-62
2021/03/25 04:56:21;;;;;;;74.63;41.08;;;77.00;1843.20;;;;;;5073386;28;20044;-70
2021/03/25 04:58:57;;;;;;;79.47;42.58;;;77.00;1843.20;;;;;;5073541;28;20020;-71
2021/03/25 05:01:29;;;;;;;86.53;45.38;;;77.00;1843.20;;;;;;5073314;28;20494;-70
2021/03/25 05:04:00;;;;;;;91.32;46.65;;;77.00;1843.20;;;;;;5074038;28;20108;-61
2021/03/25 05:06:41;;;;;;;97.97;45.75;;;77.00;1843.20;;;;;;5073342;28;20021;-61
2021/03/25 05:09:11;;;;;;;100.18;47.65;;;77.00;1843.20;;;;;;5073376;28;20025;-60
2021/03/25 05:11:39;;;;;;;105.97;49.63;;;77.00;1843.20;;;;;;5073455;28;20044;-66
2021/03/25 05:14:15;;;;;;;100.60;49.30;;;77.00;1843.20;;;;;;5073497;28;20040;-70
2021/03/25 05:16:53;;;;;;;95.68;47.95;;;77.00;1843.20;;;;;;5073479;28;20044;-71
2021/03/25 05:19:48;;;;;;;89.55;43.78;;;77.10;1843.20;;;;;;5073314;28;20031;-61
2021/03/25 05:22:22;;;;;;;77.18;41.25;;;77.10;1868.80;;;;;;5072521;28;20501;-64
2021/03/25 05:25:09;;;;;;;91.32;49.83;;;77.10;1894.40;;;;;;5073202;28;20485;-70
2021/03/25 05:27:35;;;;;;;99.70;57.17;;;77.20;1894.40;;;;;;5073250;28;20413;-60
2021/03/25 05:30:04;;;;;;;90.13;53.03;;;77.30;1894.40;;;;;;5073547;28;20074;-70
2021/03/25 05:32:37;;;;;;;73.28;42.85;;;77.30;1920.00;;;;;;5073174;28;20032;-60
2021/03/25 05:35:07;;;;;;;66.43;39.65;;;77.40;1920.00;;;;;;5073093;28;20040;-70
2021/03/25 05:37:33;;;;;;;73.00;42.15;;;77.40;1920.00;;;;;;5072814;28;20429;-70
2021/03/25 05:40:01;;;;;;;67.90;41.67;;;77.50;1945.60;;;;;;5072654;28;20029;-60
2021/03/25 05:42:43;;;;;;;72.20;40.58;;;77.60;1945.60;;;;;;5073068;28;20032;-70
2021/03/25 05:45:22;;;;;;;69.55;40.88;;;77.70;1945.60;;;;;;5073047;28;20029;-70
2021/03/25 05:48:09;;;;;;;81.18;48.00;;;77.70;1945.60;;;;;;5073297;28;20024;-70
2021/03/25 05:50:47;;;;;;;110.18;55.97;;;102.40;1945.60;;;;;;5073020;28;20052;-68
2021/03/25 05:53:27;;;;;;;95.95;54.78;;;102.50;1945.60;;;;;;5072784;28;20107;-60
2021/03/25 05:56:11;;;;;;;91.45;52.97;;;102.60;1971.20;;;;;;5072881;28;20056;-61
2021/03/25 05:58:47;;;;;;;83.13;49.88;;;102.70;1971.20;;;;;;5072708;28;20024;-60
2021/03/25 06:01:23;;;;;;;84.60;50.25;;;102.90;1945.60;;;;;;5073195;28;20028;-60
2021/03/25 06:04:09;;;;;;;91.82;50.70;;;103.00;1920.00;;;;;;5076520;28;20025;-60
2021/03/25 06:06:59;;;;;;;73.55;44.03;;;103.10;1920.00;;;;;;5076351;28;20096;-62
2021/03/25 06:09:36;;;;;;;71.15;42.58;;;103.30;1945.60;;;;;;5076332;28;20078;-61
2021/03/25 06:12:29;;;;;;;68.07;41.33;;;128.00;1920.00;;;;;;5076213;28;20046;-61
2021/03/25 06:15:01;;;;;;;62.70;37.55;;;128.20;1894.40;;;;;;5076209;28;20115;-61
2021/03/25 06:17:47;;;;;;;62.40;38.03;;;128.40;1945.60;;;;;;5076356;28;20115;-70
2021/03/25 06:20:26;;;;;;;66.53;38.35;;;128.50;1894.40;;;;;;5075750;28;20044;-63
2021/03/25 06:23:23;;;;;;;339.33;164.10;;;128.60;1868.80;;;;;;5076135;28;20033;-70
2021/03/25 06:25:52;;;;;;;241.35;120.90;;;128.70;1868.80;;;;;;5075898;28;20025;-60
2021/03/25 06:28:26;;;;;;;200.23;101.43;;;128.90;1843.20;;;;;;5076145;28;20085;-60
2021/03/25 06:31:15;;;;;;;160.13;88.70;;;153.70;1817.60;;;;;;5075860;28;20032;-62
2021/03/25 06:34:00;;;;;;;157.30;98.70;;;153.90;1843.20;;;;;;5076157;28;20029;-60
2021/03/25 06:36:48;;;;;;;88.35;54.38;;;154.00;1868.80;;;;;;5076158;28;20024;-70
2021/03/25 06:39:41;;;;;;;68.75;42.33;;;154.20;1843.20;;;;;;5076106;28;20028;-69
2021/03/25 06:42:30;;;;;;;64.15;40.47;;;154.30;1817.60;;;;;;5075719;28;20021;-70
2021/03/25 06:45:31;;;;;;;63.08;35.75;;;154.40;1792.00;;;;;;5074832;28;20031;-70
2021/03/25 06:48:00;;;;;;;56.00;34.05;;;179.20;1792.00;;;;;;5075732;28;20029;-70
2021/03/25 06:50:32;;;;;;;58.53;34.83;;;179.30;1766.40;;;;;;5075948;28;20025;-70
2021/03/25 06:53:09;;;;;;;54.47;35.05;;;179.50;1740.80;;;;;;5075494;28;20448;-70
2021/03/25 06:55:35;;;;;;;53.13;32.15;;;179.70;1740.80;;;;;;5075692;28;20117;-68
2021/03/25 06:58:06;;;;;;;45.92;30.58;;;179.80;1715.20;;;;;;5075701;28;20441;-70
2021/03/25 07:00:36;;;;;;;54.95;36.10;;;179.90;1715.20;;;;;;5075552;28;20060;-69
2021/03/25 07:03:10;;;;;;;56.03;37.10;;;180.10;1689.60;;;;;;5075215;28;20389;-69
2021/03/25 07:05:38;;;;;;;52.65;33.47;;;204.90;1664.00;;;;;;5074791;28;20029;-70
2021/03/25 07:08:14;;;;;;;54.22;34.40;;;205.10;1638.40;;;;;;5075614;28;20123;-70
2021/03/25 07:10:40;;;;;;;57.15;34.40;;;205.30;1638.40;;;;;;5075497;28;20093;-69
2021/03/25 07:13:07;;;;;;;54.88;33.47;;;205.50;1587.20;;;;;;5075067;28;20021;-69
2021/03/25 07:15:39;;;;;;;50.05;31.13;;;205.70;1587.20;;;;;;5074858;28;20043;-70
2021/03/25 07:18:52;;;;;;;51.97;32.75;;;230.60;1561.60;;;;;;5075090;28;20039;-70
2021/03/25 07:21:19;;;;;;;48.65;30.77;;;230.80;1561.60;;;;;;4974274;28;20047;-70
2021/03/25 07:23:46;;;;;;;44.80;29.55;;;231.00;1536.00;;;;;;4974245;28;20027;-70
2021/03/25 07:26:24;;;;;;;51.05;30.90;;;231.20;1536.00;;;;;;4974221;28;20043;-70
2021/03/25 07:29:25;;;;;;;45.42;30.73;;;256.00;1484.80;;;;;;4973833;28;20050;-71
2021/03/25 07:31:53;;;;;;;46.72;28.95;;;256.30;1484.80;;;;;;4916377;29;20038;-70
2021/03/25 07:34:28;;;;;;;43.72;29.05;;;256.60;1459.20;;;;;;4916613;29;20047;-70
2021/03/25 07:36:54;;;;;;;39.80;26.90;;;256.70;1433.60;;;;;;4920310;29;20028;-70
2021/03/25 07:39:48;;;;;;;45.30;27.20;;;256.90;1433.60;;;;;;4935377;29;20028;-69
2021/03/25 07:42:26;;;;;;;45.95;28.33;;;281.80;1459.20;;;;;;4935292;29;20047;-70
2021/03/25 07:44:52;;;;;;;46.35;28.15;;;282.00;1433.60;;;;;;4935446;29;20055;-70
2021/03/25 07:47:44;;;;;;;44.60;27.58;;;282.20;1408.00;;;;;;4935277;29;20413;-70
2021/03/25 07:50:27;;;;;;;40.47;26.65;;;282.40;1408.00;;;;;;4932485;29;20105;-71
2021/03/25 07:52:54;;;;;;;40.28;25.73;;;307.30;1433.60;;;;;;4935041;29;20051;-71
2021/03/25 07:55:19;;;;;;;41.45;27.55;;;307.50;1408.00;;;;;;4935068;29;20143;-70
2021/03/25 07:58:05;;;;;;;40.00;26.70;;;307.70;1356.80;;;;;;4985605;28;20415;-71
2021/03/25 08:00:35;;;;;;;41.42;27.52;;;308.00;1382.40;;;;;;5012029;28;20037;-69
2021/03/25 08:03:14;;;;;;;40.92;26.38;;;332.90;1382.40;;;;;;5012429;28;20036;-71
2021/03/25 08:05:42;;;;;;;42.47;27.80;;;333.00;1331.20;;;;;;5012334;28;20029;-70
2021/03/25 08:08:23;;;;;;;39.58;27.10;;;333.20;1305.60;;;;;;5022821;28;20036;-71
2021/03/25 08:10:51;;;;;;;37.60;27.33;;;333.40;1280.00;;;;;;5073930;28;20074;-70
2021/03/25 08:13:24;;;;;;;39.80;27.05;;;333.50;1280.00;;;;;;5073913;28;20038;-67
2021/03/25 08:16:08;;;;;;;38.65;27.10;;;333.70;1254.40;;;;;;5073924;28;20031;-70
2021/03/25 08:18:58;;;;;;;33.53;23.73;;;358.50;1254.40;;;;;;5074112;28;20526;-70
2021/03/25 08:21:36;;;;;;;38.85;25.20;;;358.60;1228.80;;;;;;5074260;28;20382;-66
2021/03/25 08:24:40;;;;;;;41.20;26.15;;;358.70;1228.80;;;;;;5069679;28;20074;-71
2021/03/25 08:27:43;;;;;;;38.20;25.02;;;358.90;1203.20;;;;;;4964260;28;20107;-70
2021/03/25 08:30:35;;;;;;;37.75;24.52;;;359.10;1177.60;;;;;;4965325;28;20159;-70
2021/03/25 08:33:28;;;;;;;41.35;24.83;;;384.00;1177.60;;;;;;4973150;28;20077;-72
2021/03/25 08:36:29;;;;;;;37.30;24.42;;;384.20;1152.00;;;;;;4972979;28;20057;-72
2021/03/25 08:39:05;;;;;;;36.40;24.35;;;384.40;1126.40;;;;;;4934364;29;20058;-73
2021/03/25 08:41:37;;;;;;;32.25;22.70;;;384.70;1100.80;;;;;;4934585;29;20545;-71
2021/03/25 08:44:05;;;;;;;29.70;20.88;;;384.80;1075.20;;;;;;4934526;29;20035;-72
2021/03/25 08:46:46;;;;;;;33.70;20.77;;;409.60;1075.20;;;;;;4934302;29;20039;-72
2021/03/25 08:49:23;;;;;;;28.45;20.60;;;409.70;1075.20;;;;;;4934685;29;20099;-72
2021/03/25 08:51:51;;;;;;;32.13;21.20;;;409.80;1049.60;;;;;;4934486;29;20114;-73
2021/03/25 08:54:39;;;;;;;34.25;21.75;;;409.80;1075.20;;;;;;4934392;29;20035;-72
2021/03/25 08:57:26;;;;;;;28.00;19.77;;;410.00;1024.00;;;;;;4934317;29;20039;-71
2021/03/25 09:00:02;;;;;;;30.85;20.92;;;410.10;998.40;;;;;;4918483;29;20043;-70
2021/03/25 09:02:33;;;;;;;32.60;20.15;;;410.30;1024.00;;;;;;4968387;28;20472;-70
2021/03/25 09:05:28;;;;;;;40.72;23.10;;;410.40;998.40;;;;;;5011826;28;20483;-71
2021/03/25 09:07:57;;;;;;;31.88;19.23;;;410.50;972.80;;;;;;5010555;28;20060;-65
2021/03/25 09:10:25;;;;;;;24.88;18.45;;;435.20;947.20;;;;;;5010295;28;20045;-68
2021/03/25 09:12:54;;;;;;;25.95;17.33;;;435.30;921.60;;;;;;5036738;28;20504;-69
2021/03/25 09:15:23;;;;;;;20.98;16.35;;;435.40;896.00;;;;;;5066406;28;20028;-70
2021/03/25 09:17:56;;;;;;;23.45;16.90;;;435.40;870.40;;;;;;5063947;28;20100;-71
2021/03/25 09:20:29;;;;;;;22.50;15.70;;;435.40;844.80;;;;;;5064259;28;20470;-70
2021/03/25 09:23:00;;;;;;;22.95;13.45;;;435.50;819.20;;;;;;5059565;28;20021;-66
2021/03/25 09:25:26;;;;;;;17.63;12.35;;;435.60;793.60;;;;;;5066368;28;20020;-68
2021/03/25 09:28:07;;;;;;;25.42;14.02;;;435.70;768.00;;;;;;5067263;28;20032;-70
2021/03/25 09:30:40;;;;;;;32.25;19.50;;;435.90;768.00;;;;;;5071351;28;20373;-67
2021/03/25 09:33:37;;;;;;;24.63;16.02;;;435.80;768.00;;;;;;5070380;28;20373;-70
2021/03/25 09:36:31;;;;;;;18.73;13.77;;;435.90;768.00;;;;;;5072517;28;20489;-71
2021/03/25 09:38:57;;;;;;;16.42;11.45;;;436.00;742.40;;;;;;4991007;28;20054;-65
2021/03/25 09:41:25;;;;;;;15.68;10.40;;;436.10;691.20;;;;;;4983000;28;20042;-70
2021/03/25 09:44:09;;;;;;;14.02;9.57;;;436.10;665.60;;;;;;4984531;28;20045;-70
2021/03/25 09:46:41;;;;;;;16.10;9.90;;;460.80;691.20;;;;;;4981410;28;20027;-71
2021/03/25 09:49:26;;;;;;;12.43;9.07;;;460.90;691.20;;;;;;4974678;28;20031;-68
2021/03/25 09:52:07;;;;;;;15.13;10.18;;;460.90;665.60;;;;;;4989849;28;20481;-68
2021/03/25 09:54:39;;;;;;;15.93;10.15;;;460.90;691.20;;;;;;4993733;28;20373;-69
2021/03/25 09:57:34;;;;;;;15.85;10.57;;;461.00;691.20;;;;;;4980077;28;20544;-70
2021/03/25 10:00:09;;;;;;;15.82;9.48;;;461.00;691.20;;;;;;4984632;28;20039;-69
2021/03/25 10:02:40;;;;;;;15.15;8.77;;;461.10;691.20;;;;;;4981688;28;20118;-69
2021/03/25 10:05:27;;;;;;;12.43;8.25;;;461.20;691.20;;;;;;4985576;28;20407;-68
2021/03/25 10:07:56;;;;;;;13.65;9.15;;;461.20;665.60;;;;;;4984718;28;20041;-64
2021/03/25 10:10:44;;;;;;;13.23;8.18;;;461.20;665.60;;;;;;4983643;28;20052;-69
2021/03/25 10:13:14;;;;;;;17.77;8.27;;;461.30;640.00;;;;;;4984905;28;20033;-70
2021/03/25 10:15:48;;;;;;;14.00;9.07;;;461.30;640.00;;;;;;5018600;28;20044;-71
2021/03/25 10:18:17;;;;;;;15.52;9.85;;;461.30;614.40;;;;;;5069969;28;20070;-70
2021/03/25 10:20:57;;;;;;;14.23;9.35;;;461.50;640.00;;;;;;5074870;28;20036;-72
2021/03/25 10:23:26;;;;;;;11.63;8.50;;;461.50;640.00;;;;;;5075233;28;20112;-69
2021/03/25 10:26:04;;;;;;;10.93;7.60;;;461.60;614.40;;;;;;5075142;28;20378;-69
2021/03/25 10:28:36;;;;;;;13.65;9.60;;;461.60;614.40;;;;;;5072559;28;20065;-67
2021/03/25 10:31:23;;;;;;;18.05;9.80;;;461.60;614.40;;;;;;5073594;28;20040;-70
2021/03/25 10:33:53;;;;;;;16.15;9.88;;;461.60;614.40;;;;;;5073906;28;20466;-70
2021/03/25 10:36:26;;;;;;;11.32;8.27;;;461.60;614.40;;;;;;5073674;28;20052;-71
2021/03/25 10:38:57;;;;;;;12.55;8.07;;;461.60;588.80;;;;;;5046954;28;792023;-71
2021/03/25 10:41:31;;;;;;;18.85;8.27;;;461.70;614.40;;;;;;5075056;28;20020;-69
2021/03/25 10:43:57;;;;;;;18.35;10.10;;;486.40;614.40;;;;;;5074667;28;20066;-71
2021/03/25 10:46:32;;;;;;;10.27;7.57;;;486.40;588.80;;;;;;5075422;28;20071;-70
2021/03/25 10:49:19;;;;;;;11.90;8.48;;;486.40;588.80;;;;;;5075166;28;20029;-70
2021/03/25 10:51:46;;;;;;;10.70;6.95;;;486.40;588.80;;;;;;5074980;28;20021;-66
2021/03/25 10:54:34;;;;;;;10.15;6.68;;;486.40;614.40;;;;;;5075098;28;20385;-70
2021/03/25 10:57:25;;;;;;;10.32;6.80;;;486.40;588.80;;;;;;5075248;28;20078;-69
2021/03/25 11:00:00;;;;;;;10.43;7.47;;;486.40;563.20;;;;;;5074855;28;20099;-69
2021/03/25 11:02:28;;;;;;;13.35;7.70;;;486.40;588.80;;;;;;5074989;28;20385;-70
2021/03/25 11:05:05;;;;;;;13.82;8.48;;;486.40;588.80;;;;;;5075048;28;20078;-70
2021/03/25 11:07:39;;;;;;;9.93;6.28;;;486.50;588.80;;;;;;5074194;28;20478;-70
2021/03/25 11:10:14;;;;;;;12.43;8.13;;;486.50;588.80;;;;;;5074964;28;20044;-70
2021/03/25 11:12:41;;;;;;;12.43;7.53;;;486.50;588.80;;;;;;5074477;28;20028;-70
2021/03/25 11:15:20;;;;;;;11.82;8.02;;;486.50;563.20;;;;;;5074513;28;20086;-68
2021/03/25 11:17:47;;;;;;;10.07;6.43;;;486.50;588.80;;;;;;5074810;28;20108;-69
2021/03/25 11:20:20;;;;;;;12.55;7.03;;;486.50;563.20;;;;;;5074048;28;20024;-69
2021/03/25 11:22:46;;;;;;;11.68;7.32;;;486.50;588.80;;;;;;5055698;28;20067;-70
2021/03/25 11:25:19;;;;;;;11.32;6.75;;;486.50;588.80;;;;;;5072813;28;20386;-70
2021/03/25 11:27:45;;;;;;;6.70;5.35;;;486.60;563.20;;;;;;5068153;28;20070;-68
2021/03/25 11:30:34;;;;;;;10.50;6.68;;;486.70;563.20;;;;;;5072959;28;20028;-69
2021/03/25 11:33:01;;;;;;;10.07;5.90;;;486.70;563.20;;;;;;5074239;28;20124;-69
2021/03/25 11:35:35;;;;;;;8.93;6.22;;;486.80;563.20;;;;;;5073993;28;20043;-70
2021/03/25 11:38:20;;;;;;;;;;;486.80;537.60;;;;;;5074676;28;20036;-70
2021/03/25 11:40:47;;;;;;;11.15;6.75;;;486.80;537.60;;;;;;5055478;28;19916;-70
2021/03/25 11:43:17;;;;;;;8.90;5.93;;;486.60;537.60;;;;;;5073228;28;20486;-69
2021/03/25 11:45:50;;;;;;;7.80;5.75;;;486.70;537.60;;;;;;5074179;28;20032;-69
2021/03/25 11:48:18;;;;;;;14.50;5.75;;;486.60;563.20;;;;;;5069876;28;20023;-69
2021/03/25 11:50:46;;;;;;;12.63;6.25;;;486.70;563.20;;;;;;5070260;28;20032;-66
2021/03/25 11:53:27;;;;;;;8.52;6.10;;;486.70;588.80;;;;;;5067677;28;20025;-68
2021/03/25 11:55:54;;;;;;;8.57;5.80;;;486.80;563.20;;;;;;5060785;28;20119;-69
2021/03/25 11:58:23;;;;;;;13.68;7.15;;;486.80;563.20;;;;;;5074425;28;20070;-70
2021/03/25 12:01:03;;;;;;;13.10;6.95;;;486.80;563.20;;;;;;5073809;28;20108;-69
2021/03/25 12:03:45;;;;;;;12.48;8.40;;;486.80;563.20;;;;;;5074399;28;20546;-70
2021/03/25 12:06:25;;;;;;;9.77;6.68;;;486.80;537.60;;;;;;5074513;28;20420;-69
2021/03/25 12:09:27;;;;;;;8.25;6.07;;;486.70;563.20;;;;;;5074405;28;20352;-70
2021/03/25 12:11:53;;;;;;;11.98;8.60;;;486.70;563.20;;;;;;4973208;28;20023;-70
2021/03/25 12:14:21;;;;;;;18.25;11.65;;;486.80;563.20;;;;;;4973428;28;20515;-69
2021/03/25 12:16:56;;;;;;;16.25;10.05;;;486.70;537.60;;;;;;4973402;28;20054;-70
2021/03/25 12:19:23;;;;;;;18.83;12.82;;;486.70;563.20;;;;;;4973571;28;20433;-69
2021/03/25 12:21:50;;;;;;;11.98;8.00;;;486.70;537.60;;;;;;4972994;28;20027;-71
2021/03/25 12:24:16;;;;;;;10.65;6.80;;;486.60;563.20;;;;;;4973489;28;20547;-69
2021/03/25 12:26:42;;;;;;;9.52;6.40;;;486.60;588.80;;;;;;4973314;28;20042;-70
2021/03/25 12:29:08;;;;;;;9.70;6.28;;;486.60;563.20;;;;;;4973092;28;20056;-70
2021/03/25 12:31:39;;;;;;;8.63;5.82;;;486.60;563.20;;;;;;4973230;28;20504;-70
2021/03/25 12:34:06;;;;;;;11.02;5.80;;;486.60;563.20;;;;;;4973087;28;20051;-70
2021/03/25 12:36:32;;;;;;;8.23;5.68;;;486.60;588.80;;;;;;4973220;28;20126;-71
2021/03/25 12:38:59;;;;;;;11.82;6.63;;;486.60;588.80;;;;;;4972702;28;20478;-63
2021/03/25 12:41:35;;;;;;;30.08;9.20;;;486.60;588.80;;;;;;4968864;28;20059;-69
2021/03/25 12:44:02;;;;;;;13.73;6.70;;;486.60;563.20;;;;;;4971340;28;20421;-69